North Waltham, Massachusetts
Current Conditions -  °F | °C
As of 2:54 AM on Saturday 27 Dec 2014 (Local Time) from KBOS Reporting Station
Clear Clear  
Wind Chill: 35°   Ceiling: Unl
Heat Index: 41°   Visibility: 10mi
Dew Point: 29°   Wind: 9mph
Humidity: 62%   Direction: 270°W
Pressure: 30.15"   Gusts: NA
Location:  42.3586°N, 71.0605°W
Report Text: KBOS 270754Z 27008KT 10SM CLR 05/M02 A3015 RMK AO2 SLP209 T00501017
Loading
Personal Weather Stations






























Interactive Weather Map New forecast layout! Learn more

10-Day Weather Forecast

Advertisements
Track Severe Weather on mobile